createdAt,value
2022-10-13T00:00:26.239Z,40.00
2022-10-13T00:01:26.243Z,42.50
2022-10-13T00:02:26.199Z,44.20
2022-10-13T00:03:26.191Z,50.50
2022-10-13T00:04:26.201Z,43.60
2022-10-13T00:05:26.173Z,47.00
2022-10-13T00:06:26.171Z,48.30
2022-10-13T00:07:26.140Z,41.10
2022-10-13T00:08:26.130Z,45.60
2022-10-13T00:09:26.121Z,40.90
2022-10-13T00:10:26.111Z,40.00
2022-10-13T00:11:26.101Z,40.70
2022-10-13T00:12:26.081Z,40.30
2022-10-13T00:13:26.065Z,39.40
2022-10-13T00:14:26.059Z,46.40
2022-10-13T00:15:26.040Z,43.80
2022-10-13T00:16:26.034Z,49.10
2022-10-13T00:17:26.012Z,39.80
2022-10-13T00:18:26.002Z,46.20
2022-10-13T00:19:26.003Z,45.20
2022-10-13T00:20:25.972Z,48.20
2022-10-13T00:21:25.963Z,42.70
2022-10-13T00:22:25.954Z,49.20
2022-10-13T00:23:25.932Z,49.80
2022-10-13T00:24:25.933Z,66.70
2022-10-13T00:25:25.913Z,66.70
2022-10-13T00:26:25.904Z,61.60
2022-10-13T00:27:25.886Z,70.10
2022-10-13T00:28:25.893Z,57.40
2022-10-13T00:29:25.864Z,64.20
2022-10-13T00:30:25.855Z,72.30
2022-10-13T00:31:25.849Z,63.50
2022-10-13T00:32:25.833Z,50.70
2022-10-13T00:33:25.812Z,50.80
2022-10-13T00:34:25.807Z,48.30
2022-10-13T00:35:25.774Z,40.20
2022-10-13T00:36:25.775Z,50.70
2022-10-13T00:37:25.764Z,49.20
2022-10-13T00:38:25.754Z,51.10
2022-10-13T00:39:25.724Z,48.20
2022-10-13T00:40:25.716Z,47.50
2022-10-13T00:41:25.705Z,48.20
2022-10-13T00:42:25.706Z,47.20
2022-10-13T00:43:25.695Z,46.40
2022-10-13T00:44:25.668Z,48.40
2022-10-13T00:45:25.655Z,54.20
2022-10-13T00:46:25.650Z,46.60
2022-10-13T00:47:25.626Z,60.20
2022-10-13T00:48:25.625Z,52.20
2022-10-13T00:49:25.707Z,51.00
2022-10-13T00:50:25.595Z,45.60
2022-10-13T00:51:25.586Z,63.10
2022-10-13T00:52:25.568Z,41.00
2022-10-13T00:53:25.566Z,40.70
2022-10-13T00:54:25.539Z,61.10
2022-10-13T00:55:25.525Z,36.90
2022-10-13T00:56:25.517Z,40.80
2022-10-13T00:57:25.496Z,41.80
2022-10-13T00:58:25.496Z,46.50
2022-10-13T00:59:25.477Z,46.40
2022-10-13T01:00:25.458Z,39.50
2022-10-13T01:01:25.448Z,40.60
2022-10-13T01:02:25.437Z,41.40
2022-10-13T01:03:25.418Z,51.20
2022-10-13T01:04:25.427Z,52.60
2022-10-13T01:05:25.402Z,56.00
2022-10-13T01:06:25.389Z,62.40
2022-10-13T01:07:25.367Z,58.20
2022-10-13T01:08:25.368Z,61.50
2022-10-13T01:09:25.359Z,51.00
2022-10-13T01:10:25.342Z,67.00
2022-10-13T01:11:25.331Z,68.80
2022-10-13T01:12:25.318Z,58.30
2022-10-13T01:13:25.298Z,48.30
2022-10-13T01:14:25.298Z,47.40
2022-10-13T01:15:25.268Z,46.60
2022-10-13T01:16:25.258Z,52.90
2022-10-13T01:17:25.243Z,49.20
2022-10-13T01:18:25.238Z,43.40
2022-10-13T01:19:25.229Z,34.70
2022-10-13T01:20:25.209Z,44.30
2022-10-13T01:21:25.190Z,50.60
2022-10-13T01:22:25.193Z,40.40
2022-10-13T01:23:25.161Z,49.50
2022-10-13T01:24:25.163Z,57.70
2022-10-13T01:25:25.139Z,56.70
2022-10-13T01:26:25.131Z,43.90
2022-10-13T01:27:25.113Z,41.20
2022-10-13T01:28:25.141Z,47.30
2022-10-13T01:29:25.091Z,50.20
2022-10-13T01:30:25.079Z,47.20
2022-10-13T01:31:25.062Z,49.40
2022-10-13T01:32:25.051Z,46.00
2022-10-13T01:33:25.031Z,46.40
2022-10-13T01:34:25.042Z,45.00
2022-10-13T01:35:25.013Z,46.00
2022-10-13T01:36:25.002Z,41.40
2022-10-13T01:37:24.995Z,39.30
2022-10-13T01:38:24.981Z,40.90
2022-10-13T01:39:24.972Z,38.80
2022-10-13T01:40:24.955Z,40.40
2022-10-13T01:41:24.931Z,38.10
2022-10-13T01:42:24.922Z,43.20
2022-10-13T01:43:24.912Z,45.00
2022-10-13T01:44:24.902Z,43.70
2022-10-13T01:45:24.901Z,44.00
2022-10-13T01:46:24.882Z,50.70
2022-10-13T01:47:24.853Z,41.20
2022-10-13T01:48:24.862Z,46.70
2022-10-13T01:49:24.837Z,33.40
2022-10-13T01:50:24.825Z,40.70
2022-10-13T01:51:24.803Z,38.20
2022-10-13T01:52:24.793Z,42.90
2022-10-13T01:53:24.783Z,44.10
2022-10-13T01:54:24.788Z,48.10
2022-10-13T01:55:24.755Z,38.70
2022-10-13T01:56:24.764Z,50.30
2022-10-13T01:57:24.726Z,49.20
2022-10-13T01:58:24.725Z,50.00
2022-10-13T01:59:24.713Z,41.50
2022-10-13T02:00:24.734Z,51.60
2022-10-13T02:01:24.674Z,41.60
2022-10-13T02:02:24.664Z,48.50
2022-10-13T02:03:24.665Z,42.60
2022-10-13T02:04:24.646Z,45.80
2022-10-13T02:05:24.624Z,49.40
2022-10-13T02:06:24.624Z,43.10
2022-10-13T02:07:24.697Z,49.90
2022-10-13T02:08:24.620Z,42.00
2022-10-13T02:09:24.597Z,45.00
2022-10-13T02:10:24.627Z,42.30
2022-10-13T02:11:26.595Z,38.40
2022-10-13T02:12:24.636Z,31.30
2022-10-13T02:13:24.536Z,33.90
2022-10-13T02:14:24.515Z,37.30
2022-10-13T02:15:24.547Z,33.00
2022-10-13T02:16:24.556Z,32.30
2022-10-13T02:17:24.465Z,31.70
2022-10-13T02:18:24.456Z,34.90
2022-10-13T02:19:24.455Z,39.60
2022-10-13T02:20:24.487Z,42.70
2022-10-13T02:21:24.428Z,41.30
2022-10-13T02:22:24.505Z,42.30
2022-10-13T02:23:24.399Z,35.40
2022-10-13T02:24:24.457Z,40.20
2022-10-13T02:25:24.365Z,43.70
2022-10-13T02:26:24.429Z,33.40
2022-10-13T02:27:24.348Z,34.40
2022-10-13T02:28:24.391Z,48.00
2022-10-13T02:29:24.329Z,34.20
2022-10-13T02:30:24.348Z,41.80
2022-10-13T02:31:24.288Z,41.80
2022-10-13T02:32:24.281Z,41.60
2022-10-13T02:33:24.279Z,49.90
2022-10-13T02:34:24.259Z,55.10
2022-10-13T02:35:24.239Z,46.30
2022-10-13T02:36:24.235Z,46.80
2022-10-13T02:37:24.219Z,51.10
2022-10-13T02:38:24.201Z,41.80
2022-10-13T02:39:24.199Z,31.40
2022-10-13T02:40:24.169Z,42.70
2022-10-13T02:41:24.161Z,40.30
2022-10-13T02:42:24.334Z,49.40
2022-10-13T02:43:24.138Z,37.00
2022-10-13T02:44:24.130Z,43.30
2022-10-13T02:45:24.112Z,46.60
2022-10-13T02:46:24.100Z,46.50
2022-10-13T02:47:24.091Z,44.60
2022-10-13T02:48:24.069Z,54.00
2022-10-13T02:49:24.080Z,46.00
2022-10-13T02:50:24.040Z,50.50
2022-10-13T02:51:24.030Z,49.80
2022-10-13T02:52:24.011Z,50.80
2022-10-13T02:53:24.019Z,50.50
2022-10-13T02:54:23.990Z,48.60
2022-10-13T02:55:23.991Z,53.60
2022-10-13T02:56:23.971Z,47.80
2022-10-13T02:57:23.953Z,55.80
2022-10-13T02:58:23.944Z,56.90
2022-10-13T02:59:23.932Z,59.50
2022-10-13T03:00:23.922Z,54.20
2022-10-13T03:01:23.902Z,52.80
2022-10-13T03:02:24.162Z,54.00
2022-10-13T03:03:23.882Z,48.10
2022-10-13T03:04:23.862Z,45.00
2022-10-13T03:05:23.864Z,50.60
2022-10-13T03:06:23.833Z,47.00
2022-10-13T03:07:23.823Z,44.30
2022-10-13T03:08:23.814Z,35.50
2022-10-13T03:09:23.813Z,51.10
2022-10-13T03:10:23.783Z,41.60
2022-10-13T03:11:23.785Z,35.90
2022-10-13T03:12:23.754Z,41.00
2022-10-13T03:13:23.744Z,46.70
2022-10-13T03:14:23.726Z,45.80
2022-10-13T03:15:23.747Z,45.10
2022-10-13T03:16:23.705Z,37.60
2022-10-13T03:17:23.757Z,36.80
2022-10-13T03:18:23.682Z,49.60
2022-10-13T03:19:23.774Z,36.50
2022-10-13T03:20:23.708Z,44.40
2022-10-13T03:21:23.675Z,45.10
2022-10-13T03:22:23.701Z,41.80
2022-10-13T03:23:23.695Z,37.30
2022-10-13T03:24:23.597Z,45.70
2022-10-13T03:25:23.708Z,45.10
2022-10-13T03:26:23.580Z,37.60
2022-10-13T03:27:23.567Z,54.80
2022-10-13T03:28:23.700Z,37.60
2022-10-13T03:29:23.547Z,55.30
2022-10-13T03:30:24.587Z,39.40
2022-10-13T03:31:23.547Z,41.60
2022-10-13T03:32:23.500Z,49.40
2022-10-13T03:33:23.557Z,40.70
2022-10-13T03:34:23.487Z,46.60
2022-10-13T03:35:23.587Z,56.70
2022-10-13T03:36:23.450Z,56.20
2022-10-13T03:37:23.498Z,59.10
2022-10-13T03:38:23.488Z,49.60
2022-10-13T03:39:23.618Z,41.20
2022-10-13T03:40:23.518Z,43.40
2022-10-13T03:41:23.408Z,40.70
2022-10-13T03:42:44.375Z,39.70
2022-10-13T03:43:23.428Z,43.00
2022-10-13T03:44:23.470Z,37.70
2022-10-13T03:45:23.428Z,29.20
2022-10-13T03:46:23.328Z,34.40
2022-10-13T03:47:23.349Z,34.90
2022-10-13T03:48:23.300Z,37.70
2022-10-13T03:49:23.300Z,33.90
2022-10-13T04:03:10.523Z,31.70
2022-10-13T04:04:10.524Z,28.60
2022-10-13T04:05:10.493Z,29.90
2022-10-13T04:06:10.481Z,22.90
2022-10-13T04:07:10.463Z,27.30
2022-10-13T04:08:10.451Z,26.10
2022-10-13T04:09:10.443Z,23.00
2022-10-13T04:10:11.645Z,22.50
2022-10-13T04:11:10.412Z,29.90
2022-10-13T04:12:10.404Z,33.20
2022-10-13T04:13:10.382Z,28.30
2022-10-13T04:14:10.395Z,35.20
2022-10-13T04:15:10.374Z,26.40
2022-10-13T04:16:10.354Z,32.00
2022-10-13T04:17:10.336Z,28.00
2022-10-13T04:18:10.333Z,28.60
2022-10-13T04:19:10.305Z,34.80
2022-10-13T04:20:10.313Z,30.80
2022-10-13T04:21:10.282Z,27.50
2022-10-13T04:22:10.285Z,27.00
2022-10-13T04:23:10.265Z,40.80
2022-10-13T04:24:10.254Z,23.40
2022-10-13T04:25:10.245Z,31.80
2022-10-13T04:26:10.214Z,36.40
2022-10-13T04:27:10.209Z,44.60
2022-10-13T04:28:10.194Z,34.20
2022-10-13T04:29:10.187Z,39.80
2022-10-13T04:30:13.396Z,47.30
2022-10-13T04:31:10.155Z,36.20
2022-10-13T04:32:10.146Z,53.60
2022-10-13T04:33:10.137Z,51.90
2022-10-13T04:34:10.119Z,45.10
2022-10-13T04:35:10.160Z,52.10
2022-10-13T04:36:10.096Z,60.40
2022-10-13T04:37:10.085Z,59.20
2022-10-13T04:38:10.078Z,60.00
2022-10-13T04:39:10.046Z,50.90
2022-10-13T04:40:10.057Z,43.80
2022-10-13T04:41:10.032Z,54.70
2022-10-13T04:42:10.017Z,55.90
2022-10-13T04:43:10.006Z,58.00
2022-10-13T04:44:09.990Z,60.20
2022-10-13T04:45:09.991Z,49.80
2022-10-13T04:46:09.971Z,39.10
2022-10-13T04:47:09.947Z,34.80
2022-10-13T04:48:09.937Z,44.50
2022-10-13T04:49:09.929Z,41.30
2022-10-13T04:50:10.917Z,41.80
2022-10-13T04:51:09.906Z,33.90
2022-10-13T04:52:09.886Z,31.50
2022-10-13T04:53:09.879Z,27.60
2022-10-13T04:54:09.852Z,29.30
2022-10-13T04:55:09.858Z,36.00
2022-10-13T04:56:09.829Z,26.00
2022-10-13T04:57:09.828Z,26.10
2022-10-13T04:58:09.799Z,28.50
2022-10-13T04:59:09.800Z,23.10
2022-10-13T05:00:09.788Z,21.70
2022-10-13T05:01:09.847Z,26.00
2022-10-13T05:02:09.749Z,31.80
2022-10-13T05:03:09.747Z,35.10
2022-10-13T05:04:09.770Z,30.10
2022-10-13T05:05:09.719Z,34.20
2022-10-13T05:06:09.710Z,35.70
2022-10-13T05:07:18.519Z,34.40
2022-10-13T05:08:10.670Z,34.60
2022-10-13T05:09:09.669Z,30.90
2022-10-13T05:10:09.656Z,34.60
2022-10-13T05:11:09.653Z,36.50
2022-10-13T05:12:09.621Z,34.10
2022-10-13T05:13:09.610Z,33.80
2022-10-13T05:14:09.601Z,25.70
2022-10-13T05:15:09.591Z,23.20
2022-10-13T05:16:09.581Z,29.20
2022-10-13T05:17:09.563Z,26.40
2022-10-13T05:18:09.560Z,32.10
2022-10-13T05:19:09.532Z,27.50
2022-10-13T05:20:09.522Z,22.00
2022-10-13T05:21:09.503Z,27.10
2022-10-13T05:22:09.500Z,27.20
2022-10-13T05:23:09.476Z,35.20
2022-10-13T05:24:09.475Z,37.10
2022-10-13T05:25:09.462Z,35.10
2022-10-13T05:26:09.444Z,37.90
2022-10-13T05:27:09.439Z,41.60
2022-10-13T05:28:09.430Z,40.60
2022-10-13T05:29:09.413Z,39.90
2022-10-13T05:30:09.401Z,37.90
2022-10-13T05:31:09.384Z,37.90
2022-10-13T05:32:09.364Z,36.30
2022-10-13T05:33:09.357Z,37.40
2022-10-13T05:34:09.344Z,35.30
2022-10-13T05:35:09.348Z,35.20
2022-10-13T05:36:09.322Z,39.20
2022-10-13T05:37:09.304Z,40.80
2022-10-13T05:38:09.305Z,33.90
2022-10-13T05:39:09.275Z,26.40
2022-10-13T05:40:09.274Z,35.50
2022-10-13T05:41:09.245Z,31.80
2022-10-13T05:42:09.234Z,35.80
2022-10-13T05:43:09.223Z,30.30
2022-10-13T05:44:09.211Z,27.60
2022-10-13T05:45:09.215Z,28.00
2022-10-13T05:46:09.178Z,25.30
2022-10-13T05:47:09.254Z,31.30
2022-10-13T05:48:09.158Z,23.90
2022-10-13T05:49:09.145Z,27.30
2022-10-13T05:50:09.146Z,29.20
2022-10-13T05:51:09.126Z,27.60
2022-10-13T05:52:09.106Z,33.80
2022-10-13T05:53:09.096Z,35.30
2022-10-13T05:54:09.077Z,42.50
2022-10-13T05:55:09.078Z,37.80
2022-10-13T05:56:09.056Z,40.80
2022-10-13T05:57:09.046Z,41.90
2022-10-13T05:58:09.042Z,39.20
2022-10-13T05:59:09.018Z,53.00
2022-10-13T06:00:09.022Z,47.20
2022-10-13T06:01:08.988Z,52.40
2022-10-13T06:02:09.019Z,46.80
2022-10-13T06:03:08.958Z,60.10
2022-10-13T06:04:08.948Z,56.90
2022-10-13T06:05:08.949Z,56.40
2022-10-13T06:06:08.929Z,50.60
2022-10-13T06:07:08.918Z,49.00
2022-10-13T06:08:08.896Z,48.30
2022-10-13T06:09:08.902Z,47.80
2022-10-13T06:10:08.890Z,56.90
2022-10-13T06:11:08.879Z,62.10
2022-10-13T06:12:08.839Z,40.00
2022-10-13T06:13:08.837Z,39.60
2022-10-13T06:14:08.819Z,45.70
2022-10-13T06:15:08.818Z,48.10
2022-10-13T06:16:08.810Z,56.50
2022-10-13T06:17:08.791Z,55.00
2022-10-13T06:18:08.770Z,43.00
2022-10-13T06:19:08.761Z,34.60
2022-10-13T06:20:08.750Z,35.30
2022-10-13T06:21:08.750Z,29.50
2022-10-13T06:22:08.725Z,35.50
2022-10-13T06:23:08.712Z,33.50
2022-10-13T06:24:08.702Z,40.40
2022-10-13T06:25:08.683Z,48.30
2022-10-13T06:26:08.686Z,45.50
2022-10-13T06:27:08.662Z,28.80
2022-10-13T06:28:08.642Z,34.50
2022-10-13T06:29:08.655Z,36.30
2022-10-13T06:30:08.632Z,48.90
2022-10-13T06:31:08.602Z,50.60
2022-10-13T06:32:08.591Z,49.70
2022-10-13T06:33:08.582Z,52.40
2022-10-13T06:34:08.582Z,46.70
2022-10-13T06:35:08.565Z,50.00
2022-10-13T06:36:08.542Z,52.40
2022-10-13T06:37:08.542Z,50.00
2022-10-13T06:38:08.512Z,44.60
2022-10-13T06:39:08.505Z,56.40
2022-10-13T06:40:08.504Z,58.70
2022-10-13T06:41:08.485Z,48.90
2022-10-13T06:42:08.474Z,51.70
2022-10-13T06:43:08.470Z,52.30
2022-10-13T06:44:08.433Z,51.90
2022-10-13T06:45:08.444Z,50.30
2022-10-13T06:46:08.428Z,41.70
2022-10-13T06:47:08.403Z,47.20
2022-10-13T06:48:08.445Z,49.40
2022-10-13T06:49:08.418Z,52.00
2022-10-13T06:50:08.383Z,57.10
2022-10-13T06:51:10.456Z,55.50
2022-10-13T06:52:08.335Z,58.70
2022-10-13T06:53:08.416Z,68.10
2022-10-13T06:54:08.305Z,58.00
2022-10-13T06:55:08.308Z,58.10
2022-10-13T06:56:08.496Z,50.80
2022-10-13T06:57:08.299Z,51.00
2022-10-13T06:58:08.301Z,56.60
2022-10-13T06:59:08.308Z,59.70
2022-10-13T07:00:08.408Z,54.70
2022-10-13T07:01:08.292Z,48.90
2022-10-13T07:02:08.206Z,45.60
2022-10-13T07:03:08.365Z,47.50
2022-10-13T07:04:08.179Z,51.90
2022-10-13T07:05:08.179Z,45.00
2022-10-13T07:06:09.293Z,49.30
2022-10-13T07:07:08.151Z,50.00
2022-10-13T07:08:08.160Z,50.20
2022-10-13T07:09:08.159Z,47.90
2022-10-13T07:10:08.159Z,49.80
2022-10-13T07:11:12.982Z,44.40
2022-10-13T07:12:09.084Z,48.30
2022-10-13T07:13:30.452Z,47.80
2022-10-13T07:14:08.063Z,50.10
2022-10-13T07:15:08.063Z,45.30
2022-10-13T07:16:08.031Z,46.80
2022-10-13T07:17:08.014Z,52.90
2022-10-13T07:18:29.130Z,52.70
2022-10-13T07:19:08.082Z,51.50
2022-10-13T07:20:09.009Z,46.60
2022-10-13T07:21:07.961Z,48.60
2022-10-13T07:22:07.983Z,42.20
2022-10-13T07:23:07.952Z,38.70
2022-10-13T07:24:07.922Z,40.10
2022-10-13T07:25:08.004Z,43.50
2022-10-13T07:26:08.930Z,43.40
2022-10-13T07:27:08.094Z,43.80
2022-10-13T07:28:08.933Z,38.60
2022-10-13T07:29:07.863Z,40.40
2022-10-13T07:30:07.923Z,41.10
2022-10-13T07:31:07.847Z,41.60
2022-10-13T07:32:07.834Z,39.20
2022-10-13T07:33:07.977Z,45.00
2022-10-13T07:34:28.866Z,47.30
2022-10-13T07:35:07.845Z,44.40
2022-10-13T07:36:28.791Z,38.00
2022-10-13T07:37:08.825Z,42.60
2022-10-13T07:38:08.786Z,38.90
2022-10-13T07:39:07.764Z,41.40
2022-10-13T07:40:07.723Z,38.30
2022-10-13T07:41:07.704Z,44.50
2022-10-13T07:42:07.694Z,40.70
2022-10-13T07:43:07.685Z,34.80
2022-10-13T07:44:07.663Z,46.90
2022-10-13T07:45:07.672Z,42.50
2022-10-13T07:46:07.653Z,40.40
2022-10-13T07:47:07.625Z,39.00
2022-10-13T07:48:07.659Z,42.50
2022-10-13T07:49:10.130Z,43.00
2022-10-13T07:50:07.604Z,37.50
2022-10-13T07:51:07.579Z,36.60
2022-10-13T07:52:07.565Z,42.70
2022-10-13T07:53:07.555Z,40.60
2022-10-13T07:54:07.527Z,36.70
2022-10-13T07:55:07.543Z,36.60
2022-10-13T07:56:07.506Z,41.00
2022-10-13T07:57:07.497Z,40.70
2022-10-13T07:58:07.476Z,39.80
2022-10-13T07:59:07.479Z,36.50
2022-10-13T08:00:07.465Z,43.60
2022-10-13T08:01:07.446Z,41.00
2022-10-13T08:02:07.438Z,39.90
2022-10-13T08:03:07.439Z,38.70
2022-10-13T08:04:07.407Z,35.80
2022-10-13T08:05:07.402Z,34.10
2022-10-13T08:06:07.380Z,33.40
2022-10-13T08:07:07.380Z,35.40
2022-10-13T08:08:07.349Z,41.00
2022-10-13T08:09:07.348Z,34.30
2022-10-13T08:10:07.338Z,33.40
2022-10-13T08:11:07.309Z,32.60
2022-10-13T08:12:07.308Z,34.30
2022-10-13T08:13:07.299Z,33.70
2022-10-13T08:14:07.268Z,32.30
2022-10-13T08:15:07.285Z,29.70
2022-10-13T08:16:07.251Z,28.90
2022-10-13T08:17:07.242Z,27.60
2022-10-13T08:18:07.230Z,28.20
2022-10-13T08:19:07.212Z,28.90
2022-10-13T08:20:07.199Z,26.60
2022-10-13T08:22:09.822Z,23.80
2022-10-13T08:23:07.160Z,30.10
2022-10-13T08:24:07.140Z,24.40
2022-10-13T08:25:07.150Z,24.60
2022-10-13T08:26:07.130Z,23.60
2022-10-13T08:27:07.116Z,24.80
2022-10-13T08:28:07.091Z,24.50
2022-10-13T08:29:21.487Z,23.20
2022-10-13T08:30:08.144Z,23.70
2022-10-13T08:31:07.207Z,28.70
2022-10-13T08:32:07.042Z,23.50
2022-10-13T08:33:07.022Z,24.70
2022-10-13T08:34:07.011Z,25.60
2022-10-13T08:35:07.003Z,24.60
2022-10-13T08:36:06.994Z,25.20
2022-10-13T08:37:06.983Z,24.50
2022-10-13T08:38:06.962Z,23.50
2022-10-13T08:39:06.957Z,25.20
2022-10-13T08:40:06.944Z,22.40
2022-10-13T08:41:06.944Z,23.40
2022-10-13T08:42:06.923Z,26.20
2022-10-13T08:43:06.902Z,26.50
2022-10-13T08:44:56.696Z,23.20
2022-10-13T08:45:39.344Z,23.90
2022-10-13T08:46:07.885Z,21.90
2022-10-13T08:47:06.854Z,22.00
2022-10-13T08:48:06.835Z,24.10
2022-10-13T08:49:06.823Z,23.20
2022-10-13T08:50:06.814Z,21.70
2022-10-13T08:51:06.814Z,24.10
2022-10-13T08:52:06.807Z,23.10
2022-10-13T08:53:06.774Z,24.10
2022-10-13T08:54:06.767Z,23.40
2022-10-13T08:55:06.764Z,23.90
2022-10-13T08:56:06.756Z,22.10
2022-10-13T08:57:06.726Z,21.60
2022-10-13T08:58:06.707Z,21.00
2022-10-13T08:59:06.703Z,22.20
2022-10-13T09:00:06.685Z,24.20
2022-10-13T09:01:06.688Z,22.30
2022-10-13T09:02:06.741Z,23.00
2022-10-13T09:03:06.637Z,20.30
2022-10-13T09:04:06.667Z,21.30
2022-10-13T09:05:06.619Z,20.80
2022-10-13T09:06:06.616Z,20.80
2022-10-13T09:07:06.596Z,19.70
2022-10-13T09:08:06.597Z,19.30
2022-10-13T09:09:06.575Z,18.50
2022-10-13T09:10:06.566Z,21.70
2022-10-13T09:11:06.563Z,20.20
2022-10-13T09:12:06.547Z,21.70
2022-10-13T09:13:06.528Z,20.10
2022-10-13T09:14:06.508Z,18.90
2022-10-13T09:15:06.487Z,20.60
2022-10-13T09:16:06.498Z,21.70
2022-10-13T09:17:06.547Z,18.80
2022-10-13T09:18:06.467Z,20.20
2022-10-13T09:19:06.437Z,20.70
2022-10-13T09:20:06.429Z,19.00
2022-10-13T09:21:06.439Z,20.00
2022-10-13T09:22:06.428Z,19.60
2022-10-13T09:23:06.388Z,22.30
2022-10-13T09:24:06.389Z,22.30
2022-10-13T09:25:06.385Z,19.80
2022-10-13T09:26:06.360Z,21.10
2022-10-13T09:27:06.340Z,20.30
2022-10-13T09:28:06.329Z,19.60
2022-10-13T09:29:06.309Z,18.50
2022-10-13T09:30:06.321Z,20.00
2022-10-13T09:31:10.293Z,20.70
2022-10-13T09:32:07.301Z,21.10
2022-10-13T09:33:06.274Z,21.00
2022-10-13T09:34:06.263Z,20.10
2022-10-13T09:35:06.251Z,21.20
2022-10-13T09:36:06.245Z,19.60
2022-10-13T09:37:06.210Z,20.60
2022-10-13T09:38:06.295Z,19.90
2022-10-13T09:39:06.191Z,19.30
2022-10-13T09:40:06.202Z,24.60
2022-10-13T09:41:06.175Z,20.70
2022-10-13T09:42:06.154Z,19.60
2022-10-13T09:43:06.142Z,21.00
2022-10-13T09:44:06.131Z,18.20
2022-10-13T09:45:06.132Z,21.50
2022-10-13T09:46:06.102Z,20.50
2022-10-13T09:47:06.092Z,22.10
2022-10-13T10:03:36.336Z,21.90
2022-10-13T10:04:36.242Z,23.00
2022-10-13T10:05:36.240Z,19.60
2022-10-13T10:06:36.231Z,21.60
2022-10-13T10:07:36.205Z,19.80
2022-10-13T10:08:58.054Z,21.70
2022-10-13T10:09:37.183Z,19.70
2022-10-13T10:10:36.181Z,22.70
2022-10-13T10:11:36.164Z,21.60
2022-10-13T10:12:36.143Z,18.70
2022-10-13T10:13:36.121Z,19.80
2022-10-13T10:14:36.126Z,21.30
2022-10-13T10:15:36.102Z,18.70
2022-10-13T10:16:36.102Z,22.50
2022-10-13T10:17:37.191Z,22.00
2022-10-13T10:18:36.053Z,19.50
2022-10-13T10:19:36.043Z,20.10
2022-10-13T10:20:36.043Z,21.60
2022-10-13T10:21:36.025Z,22.00
2022-10-13T10:22:36.003Z,18.30
2022-10-13T10:23:35.985Z,19.70
2022-10-13T10:24:36.193Z,18.20
2022-10-13T10:25:35.973Z,17.90
2022-10-13T10:26:35.954Z,18.80
2022-10-13T10:27:38.859Z,18.10
2022-10-13T10:28:36.991Z,18.50
2022-10-13T10:29:35.913Z,17.60
2022-10-13T10:30:35.916Z,20.70
2022-10-13T10:31:35.942Z,17.90
2022-10-13T10:32:37.015Z,17.30
2022-10-13T10:33:35.854Z,18.00
2022-10-13T10:34:35.859Z,17.00
2022-10-13T10:35:35.854Z,17.70
2022-10-13T10:36:35.828Z,16.40
2022-10-13T10:37:35.805Z,17.20
2022-10-13T10:38:35.806Z,20.70
2022-10-13T10:39:35.785Z,18.40
2022-10-13T10:40:35.795Z,20.00
2022-10-13T10:41:35.768Z,19.10
2022-10-13T10:42:35.748Z,19.00
2022-10-13T10:43:35.744Z,20.60
2022-10-13T10:44:35.752Z,18.50
2022-10-13T10:45:35.719Z,23.00
2022-10-13T10:46:35.796Z,21.50
2022-10-13T10:47:35.677Z,22.40
2022-10-13T10:48:35.667Z,19.20
2022-10-13T10:49:35.648Z,19.50
2022-10-13T10:50:35.659Z,20.10
2022-10-13T10:51:35.636Z,18.70
2022-10-13T10:52:35.618Z,18.70
2022-10-13T10:53:35.610Z,18.50
2022-10-13T10:54:35.589Z,17.10
2022-10-13T10:55:35.592Z,17.20
2022-10-13T10:56:35.578Z,18.80
2022-10-13T10:57:35.557Z,15.20
2022-10-13T10:58:35.548Z,18.30
2022-10-13T10:59:35.528Z,15.30
2022-10-13T11:00:35.544Z,14.90
2022-10-13T11:01:35.550Z,16.40
2022-10-13T11:02:35.499Z,16.60
2022-10-13T11:03:35.470Z,15.00
2022-10-13T11:04:35.471Z,19.40
2022-10-13T11:05:35.450Z,18.70
2022-10-13T11:06:35.435Z,15.00
2022-10-13T11:07:35.420Z,16.80
2022-10-13T11:08:35.411Z,16.20
2022-10-13T11:09:35.400Z,17.60
2022-10-13T11:10:35.409Z,14.70
2022-10-13T11:11:37.755Z,15.20
2022-10-13T11:12:35.374Z,19.00
2022-10-13T11:13:35.342Z,15.20
2022-10-13T11:14:35.341Z,15.10
2022-10-13T11:15:35.333Z,15.70
2022-10-13T11:16:35.314Z,16.00
2022-10-13T11:17:35.304Z,14.20
2022-10-13T11:18:35.282Z,16.20
2022-10-13T11:19:35.262Z,14.50
2022-10-13T11:20:35.273Z,15.30
2022-10-13T11:21:35.252Z,16.60
2022-10-13T11:22:35.233Z,13.60
2022-10-13T11:23:35.213Z,15.60
2022-10-13T11:24:35.203Z,15.40
2022-10-13T11:25:35.197Z,17.80
2022-10-13T11:26:35.185Z,13.80
2022-10-13T11:27:35.183Z,14.80
2022-10-13T11:28:35.190Z,11.10
2022-10-13T11:29:35.133Z,16.50
2022-10-13T11:30:35.147Z,14.60
2022-10-13T11:31:36.203Z,15.00
2022-10-13T11:32:35.132Z,17.20
2022-10-13T11:33:35.077Z,14.20
2022-10-13T11:34:35.065Z,20.40
2022-10-13T11:35:35.066Z,12.70
2022-10-13T11:36:35.056Z,13.90
2022-10-13T11:37:35.025Z,18.10
2022-10-13T11:38:35.015Z,16.30
2022-10-13T11:39:34.997Z,13.60
2022-10-13T11:40:35.010Z,12.60
2022-10-13T11:41:34.986Z,16.40
2022-10-13T11:42:34.967Z,17.30
2022-10-13T11:43:34.971Z,13.30
2022-10-13T11:44:34.941Z,9.80
2022-10-13T11:45:34.931Z,15.40
2022-10-13T11:46:34.912Z,16.20
2022-10-13T11:47:34.899Z,11.70
2022-10-13T11:48:34.880Z,19.00
2022-10-13T11:49:34.878Z,13.10
2022-10-13T11:50:34.868Z,15.00
2022-10-13T11:51:34.858Z,14.60
2022-10-13T11:52:34.829Z,15.50
2022-10-13T11:53:34.815Z,14.90
2022-10-13T11:54:34.809Z,12.90
2022-10-13T11:55:34.789Z,15.70
2022-10-13T11:56:38.247Z,15.50
2022-10-13T11:57:35.759Z,14.10
2022-10-13T11:58:34.761Z,12.80
2022-10-13T11:59:34.743Z,16.70
2022-10-13T12:00:34.750Z,14.60
2022-10-13T12:01:34.722Z,13.40
2022-10-13T12:02:35.767Z,18.30
2022-10-13T12:03:34.680Z,16.70
2022-10-13T12:04:34.680Z,17.60
2022-10-13T12:05:34.674Z,16.40
2022-10-13T12:06:34.665Z,13.80
2022-10-13T12:07:34.641Z,17.90
2022-10-13T12:08:34.611Z,19.20
2022-10-13T12:09:34.612Z,13.50
2022-10-13T12:10:34.601Z,16.00
2022-10-13T12:11:34.592Z,15.70
2022-10-13T12:12:34.572Z,16.90
2022-10-13T12:13:34.554Z,14.50
2022-10-13T12:14:34.580Z,15.30
2022-10-13T12:15:34.543Z,16.20
2022-10-13T12:16:34.513Z,14.10
2022-10-13T12:17:34.503Z,13.50
2022-10-13T12:18:34.492Z,16.00
2022-10-13T12:19:34.474Z,13.90
2022-10-13T12:20:34.479Z,14.90
2022-10-13T12:21:34.477Z,16.60
2022-10-13T12:22:39.364Z,18.60
2022-10-13T12:23:35.426Z,14.70
2022-10-13T12:24:34.414Z,16.30
2022-10-13T12:25:34.415Z,17.50
2022-10-13T12:26:34.382Z,16.00
2022-10-13T12:27:34.397Z,15.00
2022-10-13T12:28:34.390Z,14.40
2022-10-13T12:29:37.333Z,15.90
2022-10-13T12:30:34.337Z,15.40
2022-10-13T12:31:34.334Z,14.90
2022-10-13T12:32:34.348Z,12.70
2022-10-13T12:33:34.295Z,17.90
2022-10-13T12:34:34.285Z,15.90
2022-10-13T12:35:34.479Z,17.30
2022-10-13T12:36:34.260Z,16.40
2022-10-13T12:37:34.248Z,15.20
2022-10-13T12:38:34.228Z,17.00
2022-10-13T12:39:34.218Z,15.40
2022-10-13T12:40:34.228Z,14.70
2022-10-13T12:41:34.233Z,17.80
2022-10-13T12:42:34.170Z,20.00
2022-10-13T12:43:34.175Z,18.00
2022-10-13T12:44:34.147Z,17.40
2022-10-13T12:45:34.150Z,15.40
2022-10-13T12:46:34.119Z,16.90
2022-10-13T12:47:34.103Z,18.40
2022-10-13T12:48:34.089Z,16.50
2022-10-13T12:49:34.095Z,17.40
2022-10-13T12:50:34.216Z,16.90
2022-10-13T12:51:34.061Z,15.40
2022-10-13T12:52:34.043Z,16.10
2022-10-13T12:53:34.039Z,19.30
2022-10-13T12:54:34.013Z,16.50
2022-10-13T12:55:34.059Z,18.60
2022-10-13T12:56:33.990Z,18.70
2022-10-13T12:57:34.011Z,16.80
2022-10-13T12:58:33.962Z,17.90
2022-10-13T12:59:33.961Z,16.70
2022-10-13T13:00:34.003Z,18.00
2022-10-13T13:01:33.946Z,16.00
2022-10-13T13:02:33.911Z,17.60
2022-10-13T13:03:33.904Z,19.70
2022-10-13T13:04:33.883Z,18.10
2022-10-13T13:05:33.884Z,17.80
2022-10-13T13:06:33.856Z,16.50
2022-10-13T13:07:33.858Z,21.20
2022-10-13T13:08:33.823Z,23.00
2022-10-13T13:09:33.823Z,18.90
2022-10-13T13:10:33.822Z,19.40
2022-10-13T13:11:33.803Z,15.60
2022-10-13T13:12:33.773Z,16.50
2022-10-13T13:13:33.766Z,23.80
2022-10-13T13:14:33.749Z,20.80
2022-10-13T13:15:33.756Z,19.40
2022-10-13T13:16:33.715Z,19.60
2022-10-13T13:18:34.704Z,25.50
2022-10-13T13:19:33.695Z,18.80
2022-10-13T13:20:33.678Z,18.30
2022-10-13T13:21:33.666Z,20.40
2022-10-13T13:22:33.695Z,17.70